Time;durP1;ratioP1;P1;durP2;ratioP2;P2;SDS_P1;SDS_P2;PMS_P1;PMS_P2;Temp;Humidity;BMP_temperature;BMP_pressure;BME280_temperature;BME280_humidity;BME280_pressure;Samples;Min_cycle;Max_cycle;Signal;HPM_P1;HPM_P2
2022/07/04 00:00:19;;;;;;;3.30;2.60;;;19.30;99.60;;;;;;4982484;28;20266;-58
2022/07/04 00:02:46;;;;;;;4.60;2.67;;;19.30;99.30;;;;;;4983945;28;20360;-59
2022/07/04 00:05:12;;;;;;;3.90;2.80;;;19.20;99.90;;;;;;4984184;28;20888;-58
2022/07/04 00:07:42;;;;;;;2.70;2.50;;;19.10;99.90;;;;;;4985981;28;20452;-58
2022/07/04 00:10:09;;;;;;;2.77;2.50;;;19.00;99.90;;;;;;4998945;28;20573;-58
2022/07/04 00:12:36;;;;;;;4.17;2.80;;;18.90;99.90;;;;;;4998302;28;20475;-59
2022/07/04 00:15:03;;;;;;;6.97;2.70;;;18.90;99.90;;;;;;4988827;28;20444;-59
2022/07/04 00:17:29;;;;;;;5.17;2.23;;;18.80;99.90;;;;;;4979576;28;20513;-60
2022/07/04 00:19:55;;;;;;;3.13;2.30;;;18.80;99.90;;;;;;4987066;28;20985;-58
2022/07/04 00:22:21;;;;;;;3.40;2.33;;;18.70;99.90;;;;;;4985519;28;20674;-58
2022/07/04 00:24:46;;;;;;;2.90;2.70;;;18.70;99.90;;;;;;4983775;28;20200;-58
2022/07/04 00:27:12;;;;;;;7.23;2.20;;;18.70;99.90;;;;;;4982311;28;20205;-58
2022/07/04 00:29:37;;;;;;;4.60;2.57;;;18.60;99.90;;;;;;4989913;28;20701;-59
2022/07/04 00:32:03;;;;;;;7.30;3.00;;;18.60;99.90;;;;;;4985173;28;20228;-58
2022/07/04 00:34:29;;;;;;;4.10;2.83;;;18.60;99.90;;;;;;4987654;28;20607;-61
2022/07/04 00:36:55;;;;;;;5.60;3.27;;;18.60;99.90;;;;;;4987838;28;20420;-60
2022/07/04 00:39:20;;;;;;;6.83;2.70;;;18.60;99.90;;;;;;4990344;28;20209;-60
2022/07/04 00:41:47;;;;;;;3.80;2.77;;;18.60;99.90;;;;;;4973249;28;20581;-61
2022/07/04 00:44:15;;;;;;;3.10;2.60;;;18.60;99.90;;;;;;4981227;28;20236;-61
2022/07/04 00:46:42;;;;;;;2.60;2.40;;;18.60;99.90;;;;;;4982804;28;20451;-60
2022/07/04 00:49:08;;;;;;;2.70;2.50;;;18.60;99.90;;;;;;4979303;28;20437;-60
2022/07/04 00:51:37;;;;;;;2.50;2.30;;;18.60;99.90;;;;;;4987408;28;20424;-60
2022/07/04 00:54:04;;;;;;;4.50;2.80;;;18.60;99.90;;;;;;4983467;28;20530;-60
2022/07/04 00:56:30;;;;;;;4.70;2.50;;;18.60;99.90;;;;;;4988408;28;20436;-60
2022/07/04 00:58:56;;;;;;;4.40;3.30;;;18.60;99.90;;;;;;4989899;28;20458;-58
2022/07/04 01:01:22;;;;;;;4.30;2.57;;;18.60;99.90;;;;;;4983882;28;20192;-61
2022/07/04 01:03:49;;;;;;;9.53;3.30;;;18.60;99.90;;;;;;4983322;28;20197;-58
2022/07/04 01:06:16;;;;;;;8.43;3.37;;;18.60;99.90;;;;;;4981452;28;20830;-58
2022/07/04 01:08:42;;;;;;;6.80;2.93;;;18.60;99.90;;;;;;4988726;28;20507;-59
2022/07/04 01:11:09;;;;;;;5.50;2.80;;;18.60;99.90;;;;;;4979013;28;20421;-58
2022/07/04 01:13:35;;;;;;;3.37;2.90;;;18.60;99.90;;;;;;4971362;28;20451;-58
2022/07/04 01:16:03;;;;;;;10.30;3.37;;;18.50;99.90;;;;;;4983129;28;20444;-58
2022/07/04 01:18:28;;;;;;;3.50;3.10;;;18.50;99.90;;;;;;4984585;28;20937;-58
2022/07/04 01:20:54;;;;;;;8.17;4.90;;;18.50;99.90;;;;;;4971662;28;20488;-59
2022/07/04 01:23:20;;;;;;;4.87;4.30;;;18.50;99.90;;;;;;4980746;28;20280;-59
2022/07/04 01:25:45;;;;;;;4.43;3.30;;;18.50;99.90;;;;;;4987076;28;20826;-59
2022/07/04 01:28:11;;;;;;;3.90;3.50;;;18.50;99.90;;;;;;4986983;28;20188;-59
2022/07/04 01:30:38;;;;;;;8.13;3.07;;;18.50;99.90;;;;;;4986814;28;20275;-59
2022/07/04 01:33:04;;;;;;;3.50;3.20;;;18.50;99.90;;;;;;4989701;28;20231;-58
2022/07/04 01:35:30;;;;;;;6.13;3.37;;;18.60;99.90;;;;;;4982664;28;20439;-58
2022/07/04 01:37:57;;;;;;;5.83;3.30;;;18.60;99.90;;;;;;4980590;28;21180;-59
2022/07/04 01:40:23;;;;;;;4.93;3.00;;;18.60;99.90;;;;;;4988107;28;20467;-59
2022/07/04 01:42:49;;;;;;;5.00;2.87;;;18.60;99.90;;;;;;4988140;28;20464;-58
2022/07/04 01:45:15;;;;;;;6.00;3.03;;;18.60;99.90;;;;;;4983884;28;20432;-58
2022/07/04 01:47:41;;;;;;;9.33;3.43;;;18.70;99.90;;;;;;4986424;28;20188;-58
2022/07/04 01:50:08;;;;;;;6.80;3.13;;;18.70;99.90;;;;;;4986539;28;20182;-58
2022/07/04 01:52:34;;;;;;;8.00;3.20;;;18.70;99.90;;;;;;4987325;28;20451;-58
2022/07/04 01:55:00;;;;;;;5.90;3.23;;;18.70;99.90;;;;;;4986098;28;20859;-59
2022/07/04 01:57:26;;;;;;;8.23;3.27;;;18.60;99.90;;;;;;4984176;28;20217;-58
2022/07/04 02:02:37;;;;;;;7.03;3.60;;;18.50;99.90;;;;;;4980551;28;20263;-58
2022/07/04 02:05:04;;;;;;;5.00;3.03;;;18.40;99.90;;;;;;4984121;28;20438;-58
2022/07/04 02:07:29;;;;;;;3.10;2.90;;;18.40;99.90;;;;;;4985983;28;20436;-59
2022/07/04 02:09:55;;;;;;;3.47;3.17;;;18.30;99.90;;;;;;4986897;28;20470;-58
2022/07/04 02:15:06;;;;;;;5.70;3.37;;;18.20;99.90;;;;;;4978696;28;20188;-58
2022/07/04 02:17:32;;;;;;;6.03;3.30;;;18.20;99.90;;;;;;4980272;28;20428;-58
2022/07/04 02:19:57;;;;;;;3.73;3.20;;;18.10;99.90;;;;;;4979257;28;20460;-58
2022/07/04 02:22:23;;;;;;;8.37;3.20;;;18.10;99.90;;;;;;4983720;28;21164;-58
2022/07/04 02:24:49;;;;;;;6.73;3.60;;;18.10;99.90;;;;;;4983761;28;20184;-59
2022/07/04 02:27:14;;;;;;;8.10;3.20;;;18.10;99.90;;;;;;4980409;28;20196;-59
2022/07/04 02:29:40;;;;;;;5.60;3.43;;;18.10;99.90;;;;;;4979785;28;20189;-59
2022/07/04 02:32:06;;;;;;;7.47;3.63;;;18.10;99.90;;;;;;4988618;28;20197;-57
2022/07/04 02:34:32;;;;;;;5.70;3.50;;;18.10;99.90;;;;;;4983628;28;20542;-58
2022/07/04 02:36:58;;;;;;;4.13;3.20;;;18.20;99.90;;;;;;4981987;28;20470;-59
2022/07/04 02:39:24;;;;;;;5.83;3.63;;;18.10;99.90;;;;;;4987956;28;20193;-59
2022/07/04 02:41:49;;;;;;;3.70;3.40;;;18.10;99.90;;;;;;4989212;28;20181;-58
2022/07/04 02:44:15;;;;;;;4.03;3.37;;;18.10;99.90;;;;;;4979775;28;20200;-59
2022/07/04 02:46:41;;;;;;;4.07;3.67;;;18.10;99.90;;;;;;4985806;28;20193;-58
2022/07/04 02:49:06;;;;;;;4.27;3.87;;;18.10;99.90;;;;;;4989110;28;20408;-58
2022/07/04 02:51:32;;;;;;;4.93;3.10;;;18.10;99.90;;;;;;4989412;28;20242;-58
2022/07/04 02:53:58;;;;;;;6.50;4.10;;;18.20;99.90;;;;;;4980457;28;21164;-58
2022/07/04 02:56:24;;;;;;;5.63;3.03;;;18.20;99.90;;;;;;4976305;28;20460;-58
2022/07/04 02:58:50;;;;;;;3.63;3.33;;;18.10;99.90;;;;;;4989151;28;20264;-59
2022/07/04 03:01:18;;;;;;;4.33;2.80;;;18.10;99.90;;;;;;4991379;28;20504;-59
2022/07/04 03:03:43;;;;;;;5.53;3.27;;;18.10;99.90;;;;;;4985022;28;20197;-59
2022/07/04 03:06:10;;;;;;;4.83;2.90;;;18.10;99.90;;;;;;4991974;28;20421;-58
2022/07/04 03:08:36;;;;;;;3.67;3.23;;;18.10;99.90;;;;;;4990624;28;20700;-58
2022/07/04 03:11:02;;;;;;;3.00;2.80;;;18.10;99.90;;;;;;4991090;28;20666;-58
2022/07/04 03:13:28;;;;;;;3.00;2.70;;;18.00;99.90;;;;;;4987982;28;20445;-59
2022/07/04 03:15:54;;;;;;;3.63;3.23;;;18.00;99.90;;;;;;4984707;28;20949;-58
2022/07/04 03:18:20;;;;;;;4.23;2.73;;;18.00;99.90;;;;;;4990081;28;20177;-58
2022/07/04 03:20:46;;;;;;;3.10;2.80;;;18.00;99.90;;;;;;4991452;28;20273;-58
2022/07/04 03:23:13;;;;;;;3.10;2.63;;;17.90;99.90;;;;;;4987936;28;20463;-59
2022/07/04 03:25:39;;;;;;;8.60;3.20;;;17.90;99.90;;;;;;4987512;28;20421;-59
2022/07/04 03:28:06;;;;;;;7.07;3.50;;;18.00;99.90;;;;;;4989840;28;20440;-59
2022/07/04 03:30:32;;;;;;;3.37;3.07;;;18.00;99.90;;;;;;4987848;28;20444;-59
2022/07/04 03:32:57;;;;;;;6.90;3.40;;;17.90;99.90;;;;;;4985797;28;20456;-59
2022/07/04 03:35:23;;;;;;;3.07;2.77;;;18.00;99.90;;;;;;4982201;28;20948;-59
2022/07/04 03:37:49;;;;;;;3.27;2.77;;;17.90;99.90;;;;;;4987336;28;20264;-58
2022/07/04 03:40:14;;;;;;;5.17;3.20;;;17.90;99.90;;;;;;4984500;28;20282;-58
2022/07/04 03:42:40;;;;;;;2.73;2.40;;;17.90;99.90;;;;;;4986573;28;20284;-59
2022/07/04 03:45:06;;;;;;;3.10;2.80;;;17.90;99.90;;;;;;4985442;28;20236;-59
2022/07/04 03:47:32;;;;;;;5.67;2.90;;;17.90;99.90;;;;;;4991449;28;20252;-59
2022/07/04 03:49:58;;;;;;;7.07;3.03;;;17.80;99.90;;;;;;4988882;28;20503;-60
2022/07/04 03:52:24;;;;;;;4.03;2.80;;;17.80;99.90;;;;;;4978194;28;20237;-60
2022/07/04 03:54:50;;;;;;;6.03;3.30;;;17.90;99.90;;;;;;4977785;28;20523;-58
2022/07/04 03:57:16;;;;;;;4.10;3.63;;;17.80;99.90;;;;;;4989597;28;20201;-59
2022/07/04 03:59:41;;;;;;;4.00;3.17;;;17.90;99.90;;;;;;4982624;28;20470;-59
2022/07/04 04:02:07;;;;;;;6.30;2.90;;;17.90;99.90;;;;;;4968569;28;20173;-59
2022/07/04 04:07:16;;;;;;;3.33;2.70;;;17.90;99.90;;;;;;4968604;28;22017;-58
2022/07/04 04:09:42;;;;;;;6.37;2.93;;;17.90;99.90;;;;;;4973571;28;20492;-57
2022/07/04 04:12:08;;;;;;;4.47;2.53;;;17.90;99.90;;;;;;4978193;28;20197;-57
2022/07/04 04:14:34;;;;;;;5.67;3.13;;;17.90;99.90;;;;;;4979625;28;20190;-58
2022/07/04 04:16:59;;;;;;;3.57;3.27;;;17.90;99.90;;;;;;4979686;28;20196;-58
2022/07/04 04:19:25;;;;;;;4.57;3.13;;;17.90;99.90;;;;;;4983637;28;20270;-58
2022/07/04 04:21:50;;;;;;;4.73;3.37;;;17.90;99.90;;;;;;4977899;28;20184;-56
2022/07/04 04:24:16;;;;;;;5.53;3.20;;;17.90;99.90;;;;;;4974497;28;20212;-56
2022/07/04 04:26:42;;;;;;;7.93;3.50;;;17.90;99.90;;;;;;4975575;28;20178;-61
2022/07/04 04:29:07;;;;;;;8.97;3.60;;;17.80;99.90;;;;;;4972711;28;20255;-61
2022/07/04 04:31:33;;;;;;;5.87;3.40;;;17.80;99.90;;;;;;4974637;28;20691;-60
2022/07/04 04:33:59;;;;;;;10.83;3.10;;;17.80;99.90;;;;;;4978466;28;20210;-61
2022/07/04 04:36:24;;;;;;;3.27;3.03;;;17.80;99.90;;;;;;4977605;28;20243;-60
2022/07/04 04:38:50;;;;;;;4.30;3.60;;;17.80;99.90;;;;;;4971958;28;20961;-60
2022/07/04 04:41:18;;;;;;;5.40;3.67;;;17.80;99.90;;;;;;4970293;28;20173;-59
2022/07/04 04:43:44;;;;;;;4.50;3.57;;;17.80;99.90;;;;;;4971604;28;20210;-60
2022/07/04 04:46:10;;;;;;;3.37;3.13;;;17.80;99.90;;;;;;4984436;28;20811;-59
2022/07/04 04:48:35;;;;;;;5.30;2.90;;;17.90;99.90;;;;;;4978784;28;20188;-59
2022/07/04 04:51:01;;;;;;;4.13;3.30;;;17.90;99.90;;;;;;4973953;28;20288;-59
2022/07/04 04:53:27;;;;;;;4.80;3.17;;;17.90;99.90;;;;;;4977642;28;20228;-60
2022/07/04 04:55:53;;;;;;;4.40;2.93;;;18.00;99.90;;;;;;4978567;28;20450;-58
2022/07/04 04:58:22;;;;;;;4.40;3.27;;;18.00;99.90;;;;;;4982578;28;20291;-61
2022/07/04 05:00:49;;;;;;;4.30;2.83;;;18.00;99.90;;;;;;4979213;28;21184;-60
2022/07/04 05:03:18;;;;;;;6.40;3.70;;;18.00;99.90;;;;;;4985902;28;20455;-60
2022/07/04 05:05:45;;;;;;;4.80;3.60;;;18.10;99.90;;;;;;4985265;28;20486;-60
2022/07/04 05:08:12;;;;;;;4.40;3.30;;;18.00;99.90;;;;;;4985242;28;20433;-59
2022/07/04 05:10:38;;;;;;;6.10;4.17;;;18.00;99.90;;;;;;4981064;28;20520;-60
2022/07/04 05:13:04;;;;;;;5.27;4.30;;;18.00;99.90;;;;;;4982831;28;20464;-60
2022/07/04 05:15:30;;;;;;;14.03;4.23;;;18.00;99.90;;;;;;4983425;28;20444;-60
2022/07/04 05:17:56;;;;;;;4.17;3.70;;;18.00;99.90;;;;;;4985965;28;20443;-62
2022/07/04 05:20:22;;;;;;;4.07;3.60;;;18.00;99.90;;;;;;4986813;28;20228;-61
2022/07/04 05:22:47;;;;;;;6.33;4.10;;;18.00;99.90;;;;;;4981427;28;20213;-59
2022/07/04 05:25:13;;;;;;;10.47;3.90;;;18.00;99.90;;;;;;4979338;28;20670;-59
2022/07/04 05:27:39;;;;;;;7.60;4.63;;;18.00;99.90;;;;;;4978212;28;20182;-60
2022/07/04 05:30:06;;;;;;;6.53;4.10;;;18.00;99.90;;;;;;4982443;28;20220;-60
2022/07/04 05:32:31;;;;;;;7.83;4.33;;;18.00;99.90;;;;;;4986464;28;20482;-59
2022/07/04 05:34:58;;;;;;;5.73;3.87;;;18.00;99.90;;;;;;4983022;28;20747;-60
2022/07/04 05:37:23;;;;;;;4.23;3.60;;;18.00;99.90;;;;;;4985204;28;20529;-60
2022/07/04 05:39:49;;;;;;;6.57;4.07;;;18.00;99.90;;;;;;4980649;28;20480;-60
2022/07/04 05:42:15;;;;;;;3.70;3.40;;;18.00;99.90;;;;;;4981254;28;20247;-60
2022/07/04 05:44:41;;;;;;;6.40;3.60;;;18.00;99.90;;;;;;4986599;28;20185;-59
2022/07/04 05:47:06;;;;;;;7.17;3.23;;;18.00;99.90;;;;;;4984022;28;20177;-60
2022/07/04 05:49:32;;;;;;;4.60;3.40;;;17.90;99.90;;;;;;4987461;28;20220;-60
2022/07/04 05:51:58;;;;;;;4.67;3.60;;;17.90;99.90;;;;;;4981589;28;20181;-59
2022/07/04 05:54:24;;;;;;;4.70;3.00;;;17.90;99.90;;;;;;4984893;28;20192;-60
2022/07/04 05:56:49;;;;;;;3.90;3.50;;;17.90;99.90;;;;;;4978431;28;20199;-59
2022/07/04 05:59:15;;;;;;;4.50;3.20;;;18.00;99.90;;;;;;4985119;28;20461;-60
2022/07/04 06:01:41;;;;;;;4.13;3.60;;;18.00;99.90;;;;;;4983758;28;20185;-59
2022/07/04 06:04:06;;;;;;;5.10;3.60;;;18.10;99.90;;;;;;4981675;28;20244;-60
2022/07/04 06:06:32;;;;;;;3.60;3.27;;;18.10;99.90;;;;;;4980482;28;20661;-59
2022/07/04 06:08:58;;;;;;;7.00;3.63;;;18.20;99.90;;;;;;4983402;28;20172;-60
2022/07/04 06:11:24;;;;;;;6.73;3.60;;;18.30;99.90;;;;;;4980140;28;20594;-61
2022/07/04 06:13:50;;;;;;;3.80;3.10;;;18.40;99.90;;;;;;4982474;28;20227;-59
2022/07/04 06:16:16;;;;;;;4.53;3.60;;;18.40;99.90;;;;;;4981378;28;20181;-59
2022/07/04 06:18:42;;;;;;;3.37;2.80;;;18.40;99.90;;;;;;4984158;28;20185;-59
2022/07/04 06:21:08;;;;;;;5.00;2.97;;;18.40;99.90;;;;;;4972816;28;21937;-59
2022/07/04 06:23:34;;;;;;;3.20;3.00;;;18.50;99.90;;;;;;4983229;28;21464;-60
2022/07/04 06:25:59;;;;;;;4.30;3.20;;;18.50;99.90;;;;;;4980240;28;20721;-60
2022/07/04 06:28:25;;;;;;;5.53;3.33;;;18.50;99.90;;;;;;4980594;28;20576;-59
2022/07/04 06:30:51;;;;;;;6.73;3.70;;;18.50;99.90;;;;;;4988266;28;20201;-60
2022/07/04 06:33:18;;;;;;;5.50;3.27;;;18.50;99.90;;;;;;4980066;28;20698;-59
2022/07/04 06:35:45;;;;;;;6.77;3.33;;;18.60;99.90;;;;;;4990233;28;20204;-60
2022/07/04 06:38:25;;;;;;;3.40;3.10;;;18.60;99.90;;;;;;4992258;28;20933;-60
2022/07/04 06:40:53;;;;;;;5.00;3.60;;;18.70;99.90;;;;;;4984628;28;20460;-59
2022/07/04 06:43:19;;;;;;;4.37;2.93;;;18.70;99.90;;;;;;4986529;28;20548;-60
2022/07/04 06:45:45;;;;;;;8.40;3.60;;;18.80;99.90;;;;;;4988082;28;20551;-60
2022/07/04 06:48:10;;;;;;;7.90;3.67;;;18.80;99.90;;;;;;4989860;28;20181;-59
2022/07/04 06:50:36;;;;;;;3.43;3.13;;;18.90;99.90;;;;;;4976878;28;20651;-59
2022/07/04 06:53:04;;;;;;;11.87;3.87;;;18.90;99.90;;;;;;4990678;28;20203;-59
2022/07/04 06:55:30;;;;;;;5.20;3.37;;;18.90;99.90;;;;;;4987878;28;20515;-60
2022/07/04 06:57:56;;;;;;;3.77;3.30;;;19.00;99.90;;;;;;4983829;28;20446;-61
2022/07/04 07:00:22;;;;;;;7.10;3.43;;;19.00;99.90;;;;;;4986918;28;20456;-60
2022/07/04 07:02:47;;;;;;;4.97;3.90;;;19.10;99.90;;;;;;4990078;28;20208;-59
2022/07/04 07:05:13;;;;;;;3.60;3.30;;;19.10;99.90;;;;;;4988582;28;20255;-60
2022/07/04 07:07:39;;;;;;;5.77;3.83;;;19.20;99.90;;;;;;4983108;28;20177;-59
2022/07/04 07:10:06;;;;;;;8.90;3.47;;;19.20;99.90;;;;;;4976573;28;20776;-60
2022/07/04 07:12:33;;;;;;;8.27;3.47;;;19.20;99.90;;;;;;4985521;28;20201;-59
2022/07/04 07:14:59;;;;;;;5.10;3.37;;;19.20;99.90;;;;;;4982329;28;20424;-59
2022/07/04 07:17:25;;;;;;;4.90;3.53;;;19.30;99.90;;;;;;4989403;28;20427;-60
2022/07/04 07:19:50;;;;;;;5.47;3.60;;;19.40;99.90;;;;;;4990665;28;20208;-59
2022/07/04 07:22:16;;;;;;;9.57;3.20;;;19.60;99.90;;;;;;4988266;28;21211;-59
2022/07/04 07:24:42;;;;;;;3.83;2.93;;;19.70;99.90;;;;;;4980529;28;20174;-59
2022/07/04 07:27:08;;;;;;;3.43;3.13;;;19.80;99.90;;;;;;4987372;28;20181;-59
2022/07/04 07:29:35;;;;;;;3.50;3.20;;;19.90;99.90;;;;;;4986809;28;20443;-59
2022/07/04 07:32:01;;;;;;;3.97;3.10;;;19.90;99.90;;;;;;4989141;28;21011;-60
2022/07/04 07:34:27;;;;;;;4.70;3.13;;;19.90;99.90;;;;;;4989394;28;20486;-59
2022/07/04 07:36:53;;;;;;;10.20;3.10;;;20.00;99.90;;;;;;4984196;28;20611;-60
2022/07/04 07:39:19;;;;;;;4.63;3.13;;;20.10;99.90;;;;;;4977515;28;20558;-60
2022/07/04 07:41:45;;;;;;;5.20;3.77;;;20.20;99.90;;;;;;4986667;28;20204;-59
2022/07/04 07:44:11;;;;;;;4.87;3.00;;;20.20;99.90;;;;;;4984963;28;20865;-60
2022/07/04 07:46:36;;;;;;;7.77;4.53;;;20.20;99.90;;;;;;4986560;28;20177;-60
2022/07/04 07:49:03;;;;;;;6.43;3.33;;;20.30;99.90;;;;;;4986246;28;20265;-60
2022/07/04 07:51:29;;;;;;;7.90;3.90;;;20.30;99.90;;;;;;4984635;28;20236;-60
2022/07/04 07:53:55;;;;;;;7.33;3.67;;;20.50;99.90;;;;;;4982984;28;20464;-60
2022/07/04 07:56:21;;;;;;;5.03;3.73;;;20.70;99.90;;;;;;4984863;28;20988;-59
2022/07/04 07:58:46;;;;;;;11.67;6.40;;;20.80;99.90;;;;;;4986613;28;20208;-60
2022/07/04 08:01:12;;;;;;;10.73;5.60;;;20.90;99.90;;;;;;4984173;28;20922;-59
2022/07/04 08:06:21;;;;;;;5.00;4.07;;;21.10;98.00;;;;;;4989919;28;20712;-59
2022/07/04 08:08:47;;;;;;;4.60;3.77;;;21.10;95.20;;;;;;4987027;28;20429;-60
2022/07/04 08:11:13;;;;;;;5.80;3.93;;;21.10;97.60;;;;;;4987577;28;20802;-60
2022/07/04 08:13:39;;;;;;;6.70;3.97;;;21.20;99.90;;;;;;4987246;28;20686;-58
2022/07/04 08:16:06;;;;;;;3.27;2.97;;;21.40;99.10;;;;;;4982513;28;20899;-59
2022/07/04 08:18:32;;;;;;;8.77;3.17;;;21.50;96.30;;;;;;4986790;28;20466;-60
2022/07/04 08:20:57;;;;;;;3.53;3.20;;;21.50;93.20;;;;;;4987539;28;20503;-60
2022/07/04 08:23:23;;;;;;;4.80;3.67;;;21.50;95.50;;;;;;4985089;28;20680;-60
2022/07/04 08:25:49;;;;;;;4.33;3.20;;;21.60;96.30;;;;;;4975881;28;20174;-60
2022/07/04 08:28:15;;;;;;;6.90;3.07;;;21.70;96.00;;;;;;4982646;28;20455;-60
2022/07/04 08:30:40;;;;;;;3.20;2.67;;;21.90;93.10;;;;;;4974225;28;20213;-59
2022/07/04 08:33:06;;;;;;;3.73;2.77;;;22.00;94.00;;;;;;4988185;28;20257;-60
2022/07/04 08:35:33;;;;;;;4.63;2.90;;;22.00;94.00;;;;;;4987615;28;20186;-59
2022/07/04 08:37:58;;;;;;;2.50;2.30;;;22.10;92.00;;;;;;4987304;28;20281;-59
2022/07/04 08:40:26;;;;;;;4.90;2.60;;;22.30;90.40;;;;;;4985729;28;20464;-60
2022/07/04 08:42:52;;;;;;;2.87;2.57;;;22.40;83.60;;;;;;4983218;28;20243;-62
2022/07/04 08:45:26;;;;;;;2.80;2.50;;;22.40;79.40;;;;;;4982708;28;20452;-59
2022/07/04 08:48:00;;;;;;;2.70;2.50;;;22.40;84.50;;;;;;4979711;28;20467;-61
2022/07/04 08:50:34;;;;;;;4.73;2.40;;;22.50;78.80;;;;;;4980174;28;20443;-59
2022/07/04 08:53:09;;;;;;;3.43;3.07;;;22.60;78.00;;;;;;4989009;28;20965;-60
2022/07/04 08:58:29;;;;;;;3.70;2.60;;;22.40;82.00;;;;;;4984807;28;20524;-60
2022/07/04 09:00:57;;;;;;;5.00;2.90;;;22.40;78.70;;;;;;4982400;28;20456;-60
2022/07/04 09:03:23;;;;;;;2.73;2.53;;;22.30;79.80;;;;;;4987076;28;20460;-59
2022/07/04 09:05:49;;;;;;;4.30;2.40;;;22.20;78.30;;;;;;4977255;28;20447;-59
2022/07/04 09:08:16;;;;;;;6.53;2.90;;;22.10;80.20;;;;;;4983708;28;20428;-59
2022/07/04 09:10:41;;;;;;;4.53;2.80;;;22.10;79.00;;;;;;4986727;28;20510;-60
2022/07/04 09:13:10;;;;;;;3.17;2.87;;;22.10;80.00;;;;;;4984627;28;20451;-61
2022/07/04 09:15:36;;;;;;;5.50;2.70;;;22.10;79.80;;;;;;4985401;28;20259;-61
2022/07/04 09:18:02;;;;;;;4.20;3.27;;;22.10;82.10;;;;;;4984755;28;21094;-60
2022/07/04 09:20:30;;;;;;;4.00;2.80;;;22.20;78.50;;;;;;4988697;28;20474;-60
2022/07/04 09:22:56;;;;;;;2.63;2.43;;;22.30;78.60;;;;;;4985480;28;20448;-59
2022/07/04 09:25:23;;;;;;;4.40;2.47;;;22.30;74.60;;;;;;4982868;28;20494;-60
2022/07/04 09:27:53;;;;;;;6.20;2.60;;;22.30;75.20;;;;;;4981273;28;20177;-59
2022/07/04 09:30:27;;;;;;;5.67;3.20;;;22.50;77.00;;;;;;4978482;28;20432;-59
2022/07/04 09:33:00;;;;;;;3.13;2.83;;;22.70;79.90;;;;;;4986570;28;21046;-60
2022/07/04 09:35:28;;;;;;;2.90;2.70;;;23.00;81.70;;;;;;4979693;28;20436;-60
2022/07/04 09:38:02;;;;;;;2.70;2.50;;;23.40;83.60;;;;;;4986073;28;20577;-60
2022/07/04 09:40:27;;;;;;;3.10;2.67;;;23.70;71.70;;;;;;4973168;28;20526;-59
2022/07/04 09:42:55;;;;;;;5.20;2.93;;;23.80;68.10;;;;;;4973289;28;20456;-59
2022/07/04 09:45:23;;;;;;;4.60;3.00;;;23.90;71.50;;;;;;4981341;28;20307;-60
2022/07/04 09:47:50;;;;;;;3.33;2.53;;;24.00;71.40;;;;;;4986707;28;20525;-60
2022/07/04 09:50:18;;;;;;;3.23;2.90;;;24.00;68.70;;;;;;4983069;28;20432;-59
2022/07/04 09:52:57;;;;;;;2.67;2.47;;;24.10;65.50;;;;;;4985001;28;20463;-60
2022/07/04 09:55:32;;;;;;;3.33;2.77;;;24.10;65.80;;;;;;4979904;28;20436;-60
2022/07/04 09:58:03;;;;;;;3.20;2.90;;;24.20;66.50;;;;;;4984034;28;20941;-60
2022/07/04 10:00:29;;;;;;;2.73;2.53;;;24.30;65.20;;;;;;4983429;28;20538;-59
2022/07/04 10:02:57;;;;;;;2.17;1.97;;;24.40;63.90;;;;;;4987441;28;20452;-59
2022/07/04 10:05:24;;;;;;;2.80;2.60;;;24.50;64.60;;;;;;4986707;28;20184;-58
2022/07/04 10:07:51;;;;;;;2.60;2.40;;;24.60;65.10;;;;;;4987022;28;20422;-59
2022/07/04 10:10:33;;;;;;;7.10;2.67;;;24.40;62.50;;;;;;4978232;28;20429;-58
2022/07/04 10:13:05;;;;;;;8.10;2.90;;;24.30;63.10;;;;;;4993757;28;20534;-59
2022/07/04 10:15:33;;;;;;;3.10;2.60;;;24.10;63.50;;;;;;4982523;28;20770;-55
2022/07/04 10:18:00;;;;;;;5.63;2.87;;;24.10;67.60;;;;;;4992692;28;20426;-55
2022/07/04 10:20:26;;;;;;;3.60;2.40;;;24.40;67.50;;;;;;4988587;28;20448;-58
2022/07/04 10:22:51;;;;;;;3.47;2.27;;;24.60;65.10;;;;;;4981599;28;20447;-59
2022/07/04 10:25:18;;;;;;;4.10;2.80;;;24.60;63.30;;;;;;4985960;28;20201;-59
2022/07/04 10:27:44;;;;;;;2.27;2.07;;;24.60;64.60;;;;;;4985748;28;20191;-59
2022/07/04 10:30:14;;;;;;;2.80;2.53;;;24.70;63.50;;;;;;4981054;28;20482;-60
2022/07/04 10:32:45;;;;;;;3.60;2.30;;;24.60;63.70;;;;;;4987519;28;21059;-58
2022/07/04 10:35:15;;;;;;;6.83;2.70;;;24.50;63.20;;;;;;4982247;28;20455;-59
2022/07/04 10:38:01;;;;;;;3.30;2.30;;;24.60;64.20;;;;;;4989856;28;20435;-61
2022/07/04 10:41:02;;;;;;;3.80;2.83;;;24.60;64.90;;;;;;4988330;28;20468;-58
2022/07/04 10:43:37;;;;;;;3.07;2.87;;;24.60;64.50;;;;;;4956449;28;20509;-59
2022/07/04 10:46:05;;;;;;;2.73;2.53;;;24.50;63.10;;;;;;4987338;28;20428;-59
2022/07/04 10:48:30;;;;;;;2.77;2.57;;;24.50;64.10;;;;;;4983201;28;20424;-59
2022/07/04 10:51:06;;;;;;;2.80;2.60;;;24.50;63.60;;;;;;4984012;28;20437;-58
2022/07/04 10:53:53;;;;;;;4.03;3.10;;;24.30;63.10;;;;;;4980306;28;20200;-59
2022/07/04 10:56:18;;;;;;;3.27;2.97;;;24.20;64.30;;;;;;4985134;28;20463;-59
2022/07/04 10:58:44;;;;;;;4.03;2.80;;;24.20;66.70;;;;;;4988709;28;20519;-59
2022/07/04 11:01:13;;;;;;;7.47;2.97;;;24.20;66.40;;;;;;4983947;28;20665;-59
2022/07/04 11:03:46;;;;;;;3.13;2.93;;;24.40;67.90;;;;;;4982337;28;20205;-64
2022/07/04 11:06:54;;;;;;;3.30;3.00;;;24.70;69.50;;;;;;4975804;28;20511;-61
2022/07/04 11:09:20;;;;;;;3.80;2.60;;;25.00;65.20;;;;;;4902261;29;20515;-60
2022/07/04 11:12:06;;;;;;;4.37;2.83;;;25.20;63.90;;;;;;4968874;28;20539;-60
2022/07/04 11:14:40;;;;;;;4.40;2.57;;;25.30;61.20;;;;;;4981775;28;20731;-55
2022/07/04 11:17:32;;;;;;;4.90;2.30;;;25.30;59.20;;;;;;4980404;28;20431;-60
2022/07/04 11:20:07;;;;;;;4.90;2.60;;;25.20;59.70;;;;;;4979991;28;20466;-60
2022/07/04 11:22:34;;;;;;;3.87;2.53;;;25.20;61.40;;;;;;4979046;28;20443;-61
2022/07/04 11:24:59;;;;;;;3.83;2.60;;;25.20;60.20;;;;;;4975749;28;20439;-59
2022/07/04 11:27:25;;;;;;;4.20;2.57;;;25.10;59.50;;;;;;4979158;28;20428;-60
2022/07/04 11:29:52;;;;;;;3.47;2.93;;;25.00;60.70;;;;;;4982886;28;20169;-61
2022/07/04 11:32:19;;;;;;;6.53;3.37;;;24.90;61.00;;;;;;4941524;28;1113229;-60
2022/07/04 11:34:46;;;;;;;4.10;2.40;;;24.70;61.20;;;;;;4975334;28;20185;-61
2022/07/04 11:37:12;;;;;;;3.73;3.20;;;24.50;61.20;;;;;;4980867;28;20435;-60
2022/07/04 11:39:38;;;;;;;3.60;3.30;;;24.40;62.50;;;;;;4977198;28;20464;-60
2022/07/04 11:45:02;;;;;;;2.80;2.60;;;24.20;64.30;;;;;;4980891;28;20184;-61
2022/07/04 11:47:41;;;;;;;6.90;3.27;;;24.00;66.00;;;;;;4988502;28;20815;-61
2022/07/04 11:50:11;;;;;;;3.30;3.00;;;24.00;68.10;;;;;;4983674;28;20464;-61
2022/07/04 11:52:37;;;;;;;4.47;3.10;;;23.90;69.70;;;;;;4986865;28;21235;-61
2022/07/04 11:55:05;;;;;;;4.57;3.40;;;23.70;70.20;;;;;;4985589;28;20420;-60
2022/07/04 11:57:39;;;;;;;4.67;3.50;;;23.70;70.70;;;;;;4980852;28;20255;-59
2022/07/04 12:00:26;;;;;;;3.80;3.33;;;23.60;71.60;;;;;;4987080;28;20988;-59
2022/07/04 12:02:52;;;;;;;5.33;3.60;;;23.70;74.00;;;;;;4984382;28;20479;-59
2022/07/04 12:05:18;;;;;;;6.50;3.17;;;23.80;75.70;;;;;;4976667;28;20462;-59
2022/07/04 12:07:46;;;;;;;3.93;3.37;;;24.20;75.50;;;;;;4979988;28;20712;-59
2022/07/04 12:10:25;;;;;;;3.83;3.53;;;24.80;75.60;;;;;;4983304;28;20436;-58
2022/07/04 12:12:59;;;;;;;3.33;3.03;;;25.20;71.80;;;;;;4983699;28;20962;-60
2022/07/04 12:15:35;;;;;;;4.80;3.40;;;25.70;69.30;;;;;;4980420;28;20490;-58
2022/07/04 12:18:01;;;;;;;3.37;3.07;;;26.10;68.00;;;;;;4985049;28;20515;-58
2022/07/04 12:20:27;;;;;;;3.10;2.90;;;26.30;66.20;;;;;;4976742;28;20555;-59
2022/07/04 12:22:57;;;;;;;6.23;3.03;;;26.20;63.80;;;;;;4983766;28;20581;-59
2022/07/04 12:25:26;;;;;;;8.30;3.10;;;26.10;63.10;;;;;;4984939;28;20515;-59
2022/07/04 12:28:03;;;;;;;4.97;3.10;;;25.90;62.10;;;;;;4979613;28;20440;-59
2022/07/04 12:30:48;;;;;;;3.70;2.77;;;25.70;62.40;;;;;;4977747;28;20585;-59
2022/07/04 12:33:21;;;;;;;11.37;3.30;;;25.50;65.10;;;;;;4981812;28;20474;-59
2022/07/04 12:35:56;;;;;;;3.80;3.47;;;25.30;66.10;;;;;;4977442;28;20434;-59
2022/07/04 12:38:34;;;;;;;4.40;3.37;;;25.10;66.70;;;;;;4979889;28;20554;-59
2022/07/04 12:41:11;;;;;;;4.27;3.13;;;24.80;66.50;;;;;;4981283;28;20463;-60
2022/07/04 12:43:39;;;;;;;4.33;3.50;;;24.60;63.90;;;;;;4973735;28;20528;-59
2022/07/04 12:46:06;;;;;;;4.77;3.87;;;24.30;65.10;;;;;;4972760;28;20492;-59
2022/07/04 12:48:32;;;;;;;6.73;3.53;;;24.10;67.60;;;;;;4976750;28;20416;-59
2022/07/04 12:51:12;;;;;;;6.93;3.80;;;24.00;71.90;;;;;;4975758;28;20432;-59
2022/07/04 12:53:39;;;;;;;6.17;3.83;;;23.80;75.20;;;;;;4985070;28;20486;-59
2022/07/04 12:56:06;;;;;;;8.00;4.50;;;23.70;78.70;;;;;;4974883;28;20440;-59
2022/07/04 12:58:31;;;;;;;6.00;3.70;;;23.50;87.90;;;;;;4975097;28;20433;-60
2022/07/04 13:00:57;;;;;;;3.83;3.50;;;23.30;94.30;;;;;;4977916;28;20468;-58
2022/07/04 13:03:23;;;;;;;5.67;4.00;;;23.20;96.10;;;;;;4972445;28;20229;-59